Details From EGPF - Glasgow
To EGAA - Belfast Aldergrove
Flight Number -
Tags decoded
Created
Modified
Stats Distance 104 nm / 192 km
Max Altitude 0 ft / 0 m
Waypoints 4
Social Downloads 1
Likes 0
Share VATSIM

Download

Looking for another format? Having issues loading an existing format? Contact us
Advertisement - Login to hide

Notes

Requested: EGPF TRN P600 BLACA EGAA Unmatched points: P600

Route

EGPF TRN BLACA EGAA

ID Type Via Altitude Latitude Longitude Leg Dist Tot Dist Heading (true) Name
O EGPF APT - 0 ft / 0 m 55.87173˚ -4.43365˚ - 0 nm - Glasgow
TRN VOR - 0 ft / 0 m 55.31333˚ -4.78389˚ 35 nm 35 nm 200° / 199° TURNBERRY VOR-DME
BLACA FIX - 0 ft / 0 m 54.88259˚ -5.16405˚ 28 nm 64 nm 207° / 207° -
O EGAA APT - 0 ft / 0 m 54.65388˚ -6.22001˚ 39 nm 103 nm 250° / 249° Belfast Aldergrove

Altitude Profile

Advertisement - Login to hide

EGPF

Details ICAO EGPF (GLA)
Name Glasgow
Region United Kingdom
Timezone Europe/London (UTC+1.0)
Stats Elevation 26 ft / 8 m (AMSL)
Location 55.871728° -4.433648°
Runways 1
Magnetic Variation 2.656° W

METAR

EGPF 240620Z AUTO 06010KT 9000 OVC008 09/07 Q1027

Decode

TAF

TAF TAF EGPF 240458Z 2406/2506 07008KT 9000 BKN007 BECMG 2406/2409 9999 FEW040 PROB40 2423/2506 7000 BKN005

Decode

Departure Runways

ID Width Length Bearing (true) Bearing (mag) Surface Threshold Offset Overrun Length
05 151 ft / 46 m 8,721 ft / 2,658 m 46.34° 49.00° Asphalt 0 ft / 0 m 499 ft / 152 m
23 151 ft / 46 m 8,721 ft / 2,658 m 226.37° 229.03° Asphalt 1,004 ft / 306 m 0 ft / 0 m

EGAA

Details ICAO EGAA (BFS)
Name Belfast Aldergrove
Region United Kingdom
Timezone Europe/London (UTC+1.0)
Stats Elevation 268 ft / 82 m (AMSL)
Location 54.653878° -6.220006°
Runways 2
Magnetic Variation 3.166° W

METAR

EGAA 240620Z 06007KT CAVOK 11/10 Q1024

Decode

TAF

TAF TAF EGAA 240456Z 2406/2506 10007KT 9999 SCT045 PROB30 TEMPO 2406/2407 8000 BKN010 PROB30 TEMPO 2502/2506 7000 BKN008

Decode

Destination Runways

ID Width Length Bearing (true) Bearing (mag) Surface Threshold Offset Overrun Length
07 148 ft / 45 m 9,095 ft / 2,772 m 65.01° 68.18° Asphalt 0 ft / 0 m 0 ft / 0 m
17 148 ft / 45 m 5,896 ft / 1,797 m 161.98° 165.15° Asphalt 525 ft / 160 m 0 ft / 0 m
25 148 ft / 45 m 9,095 ft / 2,772 m 245.05° 248.22° Asphalt 0 ft / 0 m 0 ft / 0 m
35 148 ft / 45 m 5,896 ft / 1,797 m 341.99° 345.16° Asphalt 502 ft / 153 m 0 ft / 0 m

Approach Navaids

Runway Type Ident Frequency Range Bearing (true) Bearing (mag) Slope Elevation
17 Localiser IFT 110.90 MHz 18 nm / 33 km 162.00° 165.16° - 258 ft / 79 m (AMSL)
17 Glidescope IFT 110.90 MHz 10 nm / 19 km 161.99° 165.15° 3.00° 253 ft / 77 m (AMSL)
17 DME IFT 110.90 MHz 18 nm / 33 km - - - 253 ft / 77 m (AMSL)
25 Localiser IAG 109.90 MHz 18 nm / 33 km 245.01° 248.18° - 206 ft / 63 m (AMSL)
25 Glidescope IAG 109.90 MHz 10 nm / 19 km 245.03° 248.20° 3.00° 305 ft / 93 m (AMSL)
25 DME IAG 109.90 MHz 18 nm / 33 km - - - 305 ft / 93 m (AMSL)

Popular Alternatives